Time;durP1;ratioP1;P1;durP2;ratioP2;P2;SDS_P1;SDS_P2;PMS_P1;PMS_P2;Temp;Humidity;BMP_temperature;BMP_pressure;BME280_temperature;BME280_humidity;BME280_pressure;Samples;Min_cycle;Max_cycle;Signal;HPM_P1;HPM_P2
2022/02/10 00:16:31;;;;;;;2.53;1.97;;;1.60;93.00;;;;;;5086906;28;20235;-81
2022/02/10 00:21:51;;;;;;;4.17;2.03;;;1.50;93.10;;;;;;5080175;28;20205;-82
2022/02/10 00:35:23;;;;;;;2.50;2.10;;;1.50;92.90;;;;;;5086800;28;20239;-82
2022/02/10 00:37:59;;;;;;;3.33;2.13;;;1.40;92.80;;;;;;5081396;28;20197;-82
2022/02/10 00:40:27;;;;;;;2.50;2.00;;;1.50;93.00;;;;;;5086087;28;20223;-81
2022/02/10 00:42:57;;;;;;;2.73;1.93;;;1.50;92.90;;;;;;5087232;28;20266;-83
2022/02/10 00:45:26;;;;;;;3.53;2.10;;;1.40;92.90;;;;;;5085070;28;20304;-81
2022/02/10 00:47:55;;;;;;;3.80;2.10;;;1.40;92.90;;;;;;5085634;28;20710;-81
2022/02/10 00:50:25;;;;;;;3.57;2.13;;;1.50;93.00;;;;;;5087479;28;20316;-82
2022/02/10 00:52:59;;;;;;;2.63;2.00;;;1.50;92.80;;;;;;5087002;28;20204;-85
2022/02/10 00:55:28;;;;;;;2.93;2.10;;;1.40;92.90;;;;;;5096376;28;20235;-81
2022/02/10 00:57:57;;;;;;;2.30;1.80;;;1.40;93.00;;;;;;5090720;28;20629;-81
2022/02/10 01:11:32;;;;;;;2.90;1.97;;;1.50;92.50;;;;;;5089215;28;20270;-83
2022/02/10 01:14:05;;;;;;;2.37;1.80;;;1.40;92.60;;;;;;5085155;28;20221;-81
2022/02/10 01:30:16;;;;;;;2.90;1.87;;;1.30;92.70;;;;;;5086313;28;20263;-81
2022/02/10 01:32:55;;;;;;;2.00;1.70;;;1.20;92.80;;;;;;5086825;28;20220;-82
2022/02/10 01:35:24;;;;;;;3.07;2.00;;;1.20;92.90;;;;;;5086807;28;20232;-81
2022/02/10 01:37:52;;;;;;;4.20;2.03;;;1.20;92.70;;;;;;5086254;28;20732;-81
2022/02/10 01:40:29;;;;;;;2.23;1.60;;;1.20;93.00;;;;;;5085368;28;20221;-81
2022/02/10 02:05:38;;;;;;;1.70;1.50;;;1.20;92.30;;;;;;5088092;28;20247;-81
2022/02/10 02:08:12;;;;;;;1.53;1.40;;;1.20;92.40;;;;;;5086643;28;20266;-82
2022/02/10 02:10:40;;;;;;;1.70;1.60;;;1.10;92.40;;;;;;5086050;28;20216;-82
2022/02/10 02:13:21;;;;;;;2.23;1.60;;;1.10;92.50;;;;;;5086015;28;20655;-84
2022/02/10 02:15:55;;;;;;;2.20;1.60;;;1.20;92.50;;;;;;5085188;28;20590;-83
2022/02/10 02:18:23;;;;;;;1.87;1.50;;;1.20;92.50;;;;;;5088346;28;20193;-81
2022/02/10 02:21:10;;;;;;;1.70;1.60;;;1.10;92.30;;;;;;5084568;28;20693;-81
2022/02/10 02:23:56;;;;;;;2.03;1.73;;;1.00;92.30;;;;;;5067565;28;20204;-81
2022/02/10 02:26:30;;;;;;;2.53;1.70;;;1.10;92.40;;;;;;5072550;28;20235;-81
2022/02/10 02:29:03;;;;;;;2.20;1.63;;;1.10;92.40;;;;;;5088238;28;20252;-82
2022/02/10 02:38:32;;;;;;;2.27;1.50;;;1.10;92.00;;;;;;5090399;28;20198;-82
2022/02/10 03:05:42;;;;;;;2.43;1.30;;;1.00;91.70;;;;;;5075433;28;20211;-81
2022/02/10 03:08:14;;;;;;;1.20;1.10;;;1.00;91.50;;;;;;5068767;28;20204;-81
2022/02/10 03:10:59;;;;;;;1.43;1.17;;;0.90;91.50;;;;;;5068081;28;20217;-83
2022/02/10 03:13:42;;;;;;;1.50;1.40;;;0.90;91.60;;;;;;5066351;28;20190;-81
2022/02/10 03:22:11;;;;;;;1.57;1.47;;;0.60;92.10;;;;;;5064481;28;20213;-81
2022/02/10 04:02:50;;;;;;;1.33;1.20;;;0.80;91.50;;;;;;5062337;28;20188;-82
2022/02/10 04:08:47;;;;;;;2.77;1.20;;;0.90;91.50;;;;;;5071282;28;20273;-84
2022/02/10 04:11:39;;;;;;;2.17;1.20;;;0.90;91.20;;;;;;5071832;28;20217;-81
2022/02/10 04:14:14;;;;;;;1.37;1.27;;;0.90;91.30;;;;;;5069675;28;20288;-83
2022/02/10 04:16:54;;;;;;;1.43;1.30;;;0.80;91.50;;;;;;5071999;28;20212;-84
2022/02/10 04:19:46;;;;;;;1.67;1.40;;;0.70;91.50;;;;;;5069567;28;20291;-83
2022/02/10 04:22:26;;;;;;;2.23;1.40;;;0.70;91.80;;;;;;5070380;28;20198;-82
2022/02/10 04:25:15;;;;;;;2.97;1.37;;;0.70;92.20;;;;;;5069180;28;20232;-81
2022/02/10 04:28:03;;;;;;;1.93;1.40;;;0.70;91.90;;;;;;5069279;28;20255;-81
2022/02/10 04:30:52;;;;;;;1.43;1.23;;;0.70;91.70;;;;;;5069118;28;20229;-82
2022/02/10 04:45:37;;;;;;;1.30;1.20;;;0.70;91.50;;;;;;5067899;28;20262;-81
2022/02/10 04:54:45;;;;;;;2.30;1.50;;;0.80;91.50;;;;;;5058280;28;20291;-82
2022/02/10 05:21:05;;;;;;;2.43;1.30;;;0.50;92.00;;;;;;5048112;28;20249;-81
2022/02/10 05:23:54;;;;;;;1.73;1.27;;;0.60;91.60;;;;;;5067517;28;20200;-82
2022/02/10 05:34:53;;;;;;;2.80;1.77;;;0.50;92.00;;;;;;5006941;28;20330;-84
2022/02/10 05:37:24;;;;;;;2.37;1.70;;;0.50;91.70;;;;;;5056761;28;20212;-81
2022/02/10 05:39:55;;;;;;;1.40;1.20;;;0.60;91.50;;;;;;5068831;28;20235;-81
2022/02/10 05:45:29;;;;;;;2.53;1.30;;;0.70;91.30;;;;;;5076140;28;20227;-81
2022/02/10 05:48:40;;;;;;;2.13;1.67;;;0.50;91.40;;;;;;5081527;28;20262;-81
2022/02/10 05:57:14;;;;;;;1.70;1.37;;;0.50;91.50;;;;;;5026303;28;20206;-81
2022/02/10 06:52:07;;;;;;;3.23;1.87;;;1.60;90.30;;;;;;5007030;28;20230;-83
2022/02/10 06:54:59;;;;;;;3.27;1.90;;;2.10;84.90;;;;;;4980372;28;20228;-84
2022/02/10 07:06:12;;;;;;;2.07;1.63;;;1.90;86.60;;;;;;5022072;28;20233;-84
2022/02/10 07:14:53;;;;;;;4.97;2.03;;;2.60;81.20;;;;;;5134541;27;20251;-83
2022/02/10 07:43:14;;;;;;;6.83;2.40;;;2.50;77.50;;;;;;5122239;28;20207;-84
2022/02/10 07:48:22;;;;;;;6.13;2.33;;;2.10;84.30;;;;;;5117399;28;20199;-84
2022/02/10 07:53:52;;;;;;;2.87;2.30;;;3.00;77.80;;;;;;5106775;27;20750;-83
2022/02/10 07:56:44;;;;;;;2.97;1.73;;;3.40;75.20;;;;;;5108311;28;20188;-84
2022/02/10 07:59:56;;;;;;;5.37;2.00;;;3.90;71.30;;;;;;5110621;27;20228;-82
2022/02/10 08:49:57;;;;;;;3.60;1.70;;;7.40;43.80;;;;;;5106638;28;20235;-84
2022/02/10 08:55:39;;;;;;;3.63;1.80;;;8.20;37.70;;;;;;5108303;28;20220;-85
2022/02/10 09:03:48;;;;;;;4.97;2.05;;;9.50;33.50;;;;;;5107973;28;20208;-84
2022/02/10 09:06:24;;;;;;;3.45;1.80;;;10.20;30.90;;;;;;5130182;27;20208;-86
2022/02/10 10:00:36;;;;;;;7.57;2.60;;;18.80;14.40;;;;;;5129668;27;20235;-87
2022/02/10 10:03:12;;;;;;;4.28;2.33;;;18.70;14.30;;;;;;5122085;27;20198;-83
2022/02/10 10:05:55;;;;;;;7.00;2.88;;;19.30;13.90;;;;;;5113154;28;20223;-84
2022/02/10 10:08:36;;;;;;;6.35;2.53;;;20.00;12.50;;;;;;5125289;27;20257;-82
2022/02/10 10:14:22;;;;;;;3.40;2.33;;;19.60;12.50;;;;;;5117324;28;20269;-83
2022/02/10 10:17:09;;;;;;;4.93;2.40;;;18.50;14.20;;;;;;5113594;27;20195;-86
2022/02/10 10:20:02;;;;;;;6.55;2.60;;;18.30;15.30;;;;;;5121447;27;20298;-86
2022/02/10 10:50:40;;;;;;;6.55;2.90;;;18.30;15.80;;;;;;5082858;27;20234;-86
2022/02/10 10:53:16;;;;;;;5.32;3.05;;;18.20;15.90;;;;;;5146656;27;20199;-85
2022/02/10 10:55:51;;;;;;;7.05;3.65;;;17.50;16.80;;;;;;5143685;27;20223;-86
2022/02/10 10:58:31;;;;;;;4.55;2.72;;;17.20;18.20;;;;;;5144797;27;20254;-85
2022/02/10 11:37:36;;;;;;;4.70;2.40;;;14.80;20.80;;;;;;4966504;28;20205;-84
2022/02/10 11:40:13;;;;;;;3.78;2.70;;;14.50;21.10;;;;;;5048111;28;20235;-86
2022/02/10 11:42:48;;;;;;;3.95;2.35;;;14.20;23.00;;;;;;5123039;28;20203;-84
2022/02/10 12:01:24;;;;;;;4.85;2.53;;;13.50;23.10;;;;;;5053459;28;20228;-84
2022/02/10 12:39:01;;;;;;;4.72;2.38;;;13.70;20.90;;;;;;5125043;28;20191;-85
2022/02/10 13:25:16;;;;;;;6.75;3.08;;;13.50;25.40;;;;;;5125266;27;20234;-84
2022/02/10 14:10:01;;;;;;;5.15;2.50;;;13.10;26.70;;;;;;5135121;27;20348;-84
2022/02/10 14:15:53;;;;;;;5.15;2.90;;;13.00;26.20;;;;;;5112378;28;20734;-84
2022/02/10 14:18:25;;;;;;;7.50;3.13;;;13.00;27.10;;;;;;5125248;27;20219;-84
2022/02/10 14:21:07;;;;;;;8.63;3.17;;;12.90;28.80;;;;;;5121482;27;20232;-85
2022/02/10 14:29:05;;;;;;;4.82;2.85;;;12.70;28.00;;;;;;5123347;28;20567;-85
2022/02/10 14:31:32;;;;;;;5.22;2.97;;;12.70;28.20;;;;;;5121274;28;20315;-85
2022/02/10 14:34:04;;;;;;;4.90;3.00;;;12.70;28.60;;;;;;5122334;27;20227;-84
2022/02/10 14:36:38;;;;;;;6.80;3.20;;;12.60;29.30;;;;;;5125669;27;20662;-85
2022/02/10 14:39:22;;;;;;;5.68;3.05;;;12.40;29.90;;;;;;5119024;28;20223;-85
2022/02/10 14:42:14;;;;;;;6.38;3.20;;;12.40;31.60;;;;;;5119920;28;20320;-84
2022/02/10 15:47:45;;;;;;;8.40;2.90;;;11.40;32.00;;;;;;5122574;28;20237;-85
2022/02/10 15:50:05;;;;;;;7.10;2.97;;;11.20;32.20;;;;;;5122062;28;20831;-84
2022/02/10 16:15:09;;;;;;;6.78;3.17;;;10.60;35.50;;;;;;5124136;27;20224;-84
2022/02/10 16:17:35;;;;;;;7.07;3.67;;;10.60;35.00;;;;;;5128724;27;20211;-85
2022/02/10 16:20:07;;;;;;;7.45;3.60;;;10.70;35.00;;;;;;5128473;27;20224;-84
2022/02/10 16:22:37;;;;;;;7.10;3.40;;;10.60;35.50;;;;;;5124557;28;20204;-84
2022/02/10 16:25:10;;;;;;;7.72;3.35;;;10.50;35.60;;;;;;5123125;27;20682;-86
2022/02/10 16:27:39;;;;;;;7.95;3.22;;;10.50;36.50;;;;;;5122307;28;20198;-83
2022/02/10 16:30:12;;;;;;;7.25;3.85;;;10.40;36.10;;;;;;5120758;28;20300;-83
2022/02/10 16:32:40;;;;;;;9.52;3.40;;;10.40;36.30;;;;;;5122249;28;20219;-85
2022/02/10 16:35:14;;;;;;;7.85;3.70;;;10.30;36.70;;;;;;5120363;27;20279;-84
2022/02/10 16:37:44;;;;;;;6.78;3.53;;;10.20;37.60;;;;;;5121599;28;20195;-84
2022/02/10 16:40:13;;;;;;;10.50;3.63;;;10.00;38.30;;;;;;5123122;27;20235;-84
2022/02/10 16:42:40;;;;;;;6.28;3.67;;;9.80;41.50;;;;;;5118372;27;20282;-84
2022/02/10 16:45:07;;;;;;;7.05;3.65;;;9.60;42.30;;;;;;5125972;27;20287;-85
2022/02/10 16:47:42;;;;;;;5.47;3.40;;;9.60;43.70;;;;;;5125139;28;20227;-87
2022/02/10 16:50:09;;;;;;;10.20;3.25;;;9.50;44.20;;;;;;5125308;28;20636;-83
2022/02/10 16:52:39;;;;;;;7.85;3.78;;;9.50;44.60;;;;;;5125280;27;20651;-84
2022/02/10 16:55:16;;;;;;;8.50;3.63;;;9.30;46.30;;;;;;5130815;27;20219;-84
2022/02/10 16:58:02;;;;;;;7.72;3.53;;;9.30;47.70;;;;;;5126695;27;20286;-85
2022/02/10 17:01:02;;;;;;;9.13;3.63;;;9.30;47.70;;;;;;5122786;28;20269;-83
2022/02/10 17:03:38;;;;;;;9.00;3.40;;;9.40;47.80;;;;;;5126567;28;20200;-84
2022/02/10 17:14:05;;;;;;;7.40;3.70;;;9.30;47.60;;;;;;5124514;27;20230;-83
2022/02/10 17:15:00;;;;;;;7.72;4.20;;;9.00;48.10;;;;;;5123911;28;20314;-83
2022/02/10 17:17:42;;;;;;;5.85;3.45;;;9.10;47.60;;;;;;5126212;27;20680;-84
2022/02/10 17:20:26;;;;;;;7.05;3.58;;;9.30;47.70;;;;;;5136797;27;20215;-83
2022/02/10 17:25:59;;;;;;;10.13;3.97;;;9.20;47.70;;;;;;5132826;27;20245;-83
2022/02/10 17:28:31;;;;;;;7.68;4.00;;;9.20;47.70;;;;;;5128787;27;20227;-83
2022/02/10 17:31:25;;;;;;;6.05;3.97;;;9.00;47.50;;;;;;5128885;28;20244;-83
2022/02/10 17:34:13;;;;;;;8.40;4.03;;;8.90;48.60;;;;;;5128389;28;20275;-83
2022/02/10 17:36:50;;;;;;;12.55;4.50;;;8.90;49.60;;;;;;5121833;28;20204;-83
2022/02/10 17:42:27;;;;;;;6.22;3.60;;;8.80;51.40;;;;;;5129966;28;20233;-85
2022/02/10 17:45:09;;;;;;;9.38;4.30;;;8.90;51.50;;;;;;5128663;28;20289;-84
2022/02/10 17:53:11;;;;;;;7.57;4.03;;;9.10;50.30;;;;;;5120708;28;20203;-84
2022/02/10 17:55:38;;;;;;;9.57;4.60;;;9.00;51.20;;;;;;5144792;27;20234;-85
2022/02/10 17:58:05;;;;;;;8.95;4.10;;;8.90;52.00;;;;;;5126340;28;20264;-82
2022/02/10 18:00:32;;;;;;;7.15;4.28;;;8.80;52.90;;;;;;5125561;28;20838;-84
2022/02/10 18:03:05;;;;;;;8.38;4.50;;;8.80;53.50;;;;;;5124965;28;20199;-83
2022/02/10 18:06:08;;;;;;;13.48;4.38;;;8.90;53.60;;;;;;5122368;28;20223;-82
2022/02/10 18:08:40;;;;;;;12.98;5.07;;;8.90;53.30;;;;;;5125124;28;20230;-84
2022/02/10 18:14:07;;;;;;;10.00;4.93;;;8.90;60.90;;;;;;5043521;28;20230;-83
2022/02/10 18:16:38;;;;;;;9.25;5.40;;;8.80;64.80;;;;;;5125343;27;20227;-84
2022/02/10 18:19:11;;;;;;;10.05;5.70;;;8.70;70.20;;;;;;5147057;27;20283;-82
2022/02/10 18:22:06;;;;;;;9.52;5.50;;;8.60;73.50;;;;;;5137463;27;20210;-83
2022/02/10 18:24:53;;;;;;;7.97;5.28;;;8.50;73.40;;;;;;5139769;27;20235;-83
2022/02/10 18:27:28;;;;;;;10.32;5.15;;;8.40;75.30;;;;;;5124327;27;20196;-84
2022/02/10 19:09:10;;;;;;;27.13;17.85;;;9.40;79.80;;;;;;5125467;28;20745;-82
2022/02/10 19:11:45;;;;;;;16.00;10.68;;;10.20;76.60;;;;;;5126001;28;20223;-84
2022/02/10 19:14:25;;;;;;;15.50;6.53;;;10.50;70.70;;;;;;5129290;28;20241;-82
2022/02/10 19:16:58;;;;;;;9.73;5.88;;;10.60;63.50;;;;;;5128716;28;20288;-83
2022/02/10 19:19:25;;;;;;;10.05;5.95;;;10.70;58.60;;;;;;5143953;27;20276;-83
2022/02/10 19:22:02;;;;;;;12.45;6.15;;;10.30;60.70;;;;;;5129843;28;20295;-83
2022/02/10 19:24:34;;;;;;;8.43;6.10;;;10.30;65.60;;;;;;5126543;28;20253;-83
2022/02/10 19:27:04;;;;;;;12.85;6.38;;;10.20;64.40;;;;;;5119497;28;20234;-82
2022/02/10 19:29:38;;;;;;;10.13;6.03;;;10.40;63.10;;;;;;5134619;27;20231;-84
2022/02/10 19:32:06;;;;;;;10.48;5.95;;;10.50;68.20;;;;;;5105885;28;20257;-82
2022/02/10 19:34:35;;;;;;;35.05;24.73;;;10.90;59.80;;;;;;5109460;28;20224;-82
2022/02/10 19:37:03;;;;;;;20.48;14.63;;;10.80;60.30;;;;;;5119651;28;20286;-82
2022/02/10 19:39:37;;;;;;;28.42;20.52;;;11.10;62.10;;;;;;5125850;28;20247;-86
2022/02/10 19:42:06;;;;;;;34.95;25.27;;;11.20;63.70;;;;;;5127255;28;20195;-83
2022/02/10 19:44:33;;;;;;;25.75;19.13;;;11.60;58.30;;;;;;5125394;28;20233;-85
2022/02/10 19:47:03;;;;;;;32.17;20.15;;;11.20;56.30;;;;;;5125507;28;20196;-82
2022/02/10 19:49:31;;;;;;;14.73;9.10;;;10.70;61.10;;;;;;5126503;28;20243;-83
2022/02/10 19:51:58;;;;;;;19.02;12.70;;;10.80;58.20;;;;;;5127214;28;20291;-82
2022/02/10 19:54:28;;;;;;;12.25;9.13;;;10.80;63.60;;;;;;5126783;28;20675;-85
2022/02/10 19:56:58;;;;;;;12.30;9.32;;;11.10;57.50;;;;;;5125428;28;20200;-83
2022/02/10 19:59:29;;;;;;;27.42;17.20;;;10.90;58.90;;;;;;5126070;27;20251;-83
2022/02/10 20:01:56;;;;;;;105.40;72.43;;;10.80;61.50;;;;;;5124689;28;20200;-86
2022/02/10 20:04:24;;;;;;;28.27;21.15;;;10.60;62.20;;;;;;5126032;27;20425;-82
2022/02/10 20:06:52;;;;;;;30.08;19.98;;;10.60;59.90;;;;;;5126785;28;20196;-82
2022/02/10 20:09:51;;;;;;;36.45;25.48;;;10.30;64.10;;;;;;5127244;28;20242;-82
2022/02/10 20:12:20;;;;;;;15.38;11.10;;;10.40;65.50;;;;;;5125555;28;20216;-83
2022/02/10 20:18:02;;;;;;;11.25;7.32;;;10.60;59.20;;;;;;5126513;28;20241;-82
2022/02/10 20:20:37;;;;;;;14.23;7.80;;;10.00;60.40;;;;;;5126604;27;20744;-82
2022/02/10 20:23:04;;;;;;;11.00;7.93;;;9.60;66.70;;;;;;5131365;27;20234;-85
2022/02/10 20:25:32;;;;;;;13.57;7.88;;;9.30;70.90;;;;;;5136885;27;20690;-85
2022/02/10 20:28:01;;;;;;;10.77;7.40;;;9.10;74.00;;;;;;5131239;27;20203;-82
2022/02/10 20:30:27;;;;;;;12.57;8.02;;;8.80;73.70;;;;;;5148738;27;20226;-82
2022/02/10 20:32:54;;;;;;;14.55;7.88;;;8.50;76.30;;;;;;5148406;27;20260;-84
2022/02/10 20:35:21;;;;;;;12.57;7.50;;;8.20;78.50;;;;;;5114856;27;20253;-83
2022/02/10 20:37:53;;;;;;;9.82;7.22;;;8.10;79.80;;;;;;5128567;28;20241;-86
2022/02/10 20:40:20;;;;;;;17.70;7.93;;;8.00;81.40;;;;;;5124032;27;20224;-82
2022/02/10 20:42:47;;;;;;;11.07;7.57;;;7.90;82.40;;;;;;5128592;28;20207;-82
2022/02/10 20:45:15;;;;;;;11.50;8.55;;;7.70;83.00;;;;;;5130158;27;20227;-83
2022/02/10 20:47:44;;;;;;;11.88;7.50;;;7.70;84.20;;;;;;5129034;27;20223;-83
2022/02/10 20:50:13;;;;;;;12.70;7.63;;;7.80;84.40;;;;;;5135155;27;20231;-83
2022/02/10 20:52:40;;;;;;;13.27;7.78;;;7.80;83.60;;;;;;5123051;28;20281;-83
2022/02/10 20:55:09;;;;;;;12.85;7.95;;;7.90;83.90;;;;;;5126237;28;20227;-85
2022/02/10 20:57:40;;;;;;;12.68;7.63;;;7.90;83.80;;;;;;5127266;28;20204;-84
2022/02/10 21:00:14;;;;;;;13.70;7.78;;;8.00;83.90;;;;;;5131955;27;20314;-82
2022/02/10 21:02:45;;;;;;;12.90;7.65;;;8.00;83.70;;;;;;5136625;27;20251;-82
2022/02/10 21:05:25;;;;;;;11.23;7.68;;;7.90;84.30;;;;;;5125590;27;20223;-84
2022/02/10 21:08:05;;;;;;;14.93;8.40;;;7.80;84.40;;;;;;5126586;27;20207;-90
2022/02/10 21:10:36;;;;;;;13.68;8.18;;;7.70;85.50;;;;;;5124589;27;20269;-84
2022/02/10 21:13:03;;;;;;;12.70;7.57;;;7.70;85.80;;;;;;5127526;27;20674;-84
2022/02/10 21:15:37;;;;;;;10.45;7.80;;;7.70;85.90;;;;;;5125469;27;20234;-82
2022/02/10 21:18:08;;;;;;;10.48;7.35;;;7.60;86.10;;;;;;5127126;27;20188;-91
2022/02/10 21:20:37;;;;;;;14.93;8.35;;;7.50;86.50;;;;;;5124823;28;20223;-83
2022/02/10 21:23:15;;;;;;;15.48;7.93;;;7.50;86.80;;;;;;5126757;27;20613;-85
2022/02/10 21:25:43;;;;;;;12.17;7.90;;;7.40;87.90;;;;;;5134135;27;20302;-83
2022/02/10 21:28:18;;;;;;;10.80;7.93;;;7.40;87.50;;;;;;5124364;28;20196;-82
2022/02/10 21:30:48;;;;;;;14.98;8.25;;;7.40;88.10;;;;;;5141356;27;20219;-82
2022/02/10 21:33:27;;;;;;;19.37;11.90;;;7.40;88.20;;;;;;5144914;27;20199;-83
2022/02/10 21:38:43;;;;;;;14.33;8.23;;;7.30;87.80;;;;;;5125469;28;20673;-81
2022/02/10 21:41:52;;;;;;;13.65;7.90;;;7.20;88.50;;;;;;5148341;27;20294;-83
2022/02/10 22:07:16;;;;;;;18.50;12.37;;;7.40;90.80;;;;;;5091965;28;20197;-83
2022/02/10 22:09:43;;;;;;;18.10;11.87;;;7.50;89.30;;;;;;5102118;28;20211;-84
2022/02/10 22:16:25;;;;;;;14.47;11.60;;;7.60;88.60;;;;;;5107708;28;20200;-83
2022/02/10 22:20:45;;;;;;;21.05;12.32;;;7.90;86.70;;;;;;5110168;28;20722;-83
2022/02/10 22:23:18;;;;;;;17.90;12.20;;;7.90;86.70;;;;;;5101091;28;20189;-85
2022/02/10 22:25:45;;;;;;;14.68;10.60;;;7.90;87.30;;;;;;5103277;28;20215;-83
2022/02/10 22:28:32;;;;;;;19.15;13.05;;;7.80;87.50;;;;;;5104746;28;20205;-85
2022/02/10 22:31:17;;;;;;;17.75;11.63;;;7.80;87.00;;;;;;5112348;28;20265;-83
2022/02/10 22:33:51;;;;;;;15.18;10.77;;;7.70;88.50;;;;;;5110684;28;20208;-85
2022/02/10 22:36:20;;;;;;;15.77;9.50;;;7.70;88.40;;;;;;5112011;28;20227;-83
2022/02/10 22:38:48;;;;;;;16.50;10.23;;;7.70;86.90;;;;;;5104516;28;20204;-83
2022/02/10 22:41:15;;;;;;;18.25;10.63;;;7.70;87.50;;;;;;5108977;28;20722;-83
2022/02/10 22:43:46;;;;;;;18.50;10.35;;;7.70;88.50;;;;;;5102159;28;20292;-84
2022/02/10 22:46:15;;;;;;;21.00;11.73;;;7.70;88.50;;;;;;5103358;28;20635;-93
2022/02/10 22:48:44;;;;;;;18.42;10.65;;;7.70;87.90;;;;;;5104093;28;20717;-83
2022/02/10 22:51:12;;;;;;;21.55;12.88;;;7.70;89.10;;;;;;5106577;28;20555;-83
2022/02/10 22:53:39;;;;;;;16.15;10.98;;;7.70;88.30;;;;;;5106688;28;20224;-83
2022/02/10 22:56:08;;;;;;;17.58;9.52;;;7.70;88.40;;;;;;5085821;28;20213;-83
2022/02/10 22:58:36;;;;;;;16.73;10.88;;;7.60;85.80;;;;;;5087620;28;20246;-83
2022/02/10 23:01:10;;;;;;;14.50;8.43;;;7.60;87.60;;;;;;5104545;28;20230;-85
2022/02/10 23:03:50;;;;;;;14.43;8.25;;;7.60;85.40;;;;;;5102991;28;20283;-83
2022/02/10 23:06:17;;;;;;;14.80;7.45;;;7.60;86.60;;;;;;5093419;28;20268;-85
2022/02/10 23:08:44;;;;;;;9.75;6.68;;;7.70;86.80;;;;;;5095635;28;20271;-83
2022/02/10 23:11:13;;;;;;;11.27;6.90;;;7.70;85.00;;;;;;5093101;28;20196;-85
2022/02/10 23:13:46;;;;;;;8.70;5.93;;;7.70;84.20;;;;;;5086238;28;20256;-82
2022/02/10 23:16:15;;;;;;;10.02;6.35;;;7.40;83.10;;;;;;5093549;28;20228;-83
2022/02/10 23:18:45;;;;;;;10.30;6.80;;;7.30;84.70;;;;;;5096891;28;20265;-83
2022/02/10 23:21:14;;;;;;;9.30;6.50;;;7.20;87.50;;;;;;5092778;28;20219;-86
2022/02/10 23:23:44;;;;;;;9.23;6.00;;;7.30;86.10;;;;;;5085366;28;20201;-83
2022/02/10 23:26:12;;;;;;;14.77;7.18;;;7.20;84.30;;;;;;5083928;28;20189;-86
2022/02/10 23:28:41;;;;;;;10.52;6.18;;;7.30;89.50;;;;;;5099725;28;20203;-83
2022/02/10 23:31:12;;;;;;;7.72;5.30;;;7.30;86.70;;;;;;5100511;28;20299;-84
2022/02/10 23:33:42;;;;;;;9.77;5.53;;;7.30;84.50;;;;;;5101323;28;20210;-83
2022/02/10 23:36:38;;;;;;;9.27;5.43;;;7.20;84.60;;;;;;5074773;28;20217;-83
2022/02/10 23:39:10;;;;;;;8.98;6.03;;;7.10;85.30;;;;;;5078469;28;20232;-83
2022/02/10 23:41:58;;;;;;;10.07;5.60;;;7.20;89.20;;;;;;5080075;28;20240;-85
2022/02/10 23:44:28;;;;;;;9.70;5.82;;;7.30;86.60;;;;;;5085698;28;20273;-83
2022/02/10 23:46:57;;;;;;;7.78;4.97;;;7.30;86.00;;;;;;5091873;28;20189;-86
2022/02/10 23:49:27;;;;;;;9.57;5.38;;;7.30;86.40;;;;;;5101142;28;20243;-83
2022/02/10 23:51:57;;;;;;;8.65;5.20;;;7.30;86.10;;;;;;5100877;28;20208;-83
2022/02/10 23:54:25;;;;;;;8.93;5.60;;;7.30;85.10;;;;;;5087531;28;20248;-84
2022/02/10 23:56:58;;;;;;;10.50;6.05;;;7.10;85.70;;;;;;5097739;28;20220;-82
